| Date | Time | Temp. (oF) | Dew Point (oF) | Rel. Hum. (%) | Press. (in.) | Wind Dir. | Wind Speed (mph) | Hourly Rainfall (in.) |
|
|---|---|---|---|---|---|---|---|---|---|
| 1 | 01/28 | 00:00 | 38 | 28 | 69 | 29.98 | SSW | 4 | 0.00 |
| 2 | 01/27 | 23:00 | 40 | 30 | 68 | 29.97 | WSW | 13 | 0.00 |
| 3 | 01/27 | 22:00 | 41 | 31 | 70 | 29.94 | NNE | 7 | 0.00 |
| 4 | 01/27 | 21:00 | 41 | 33 | 74 | 29.90 | SW | 9 | 0.00 |
| 5 | 01/27 | 20:00 | 42 | 35 | 78 | 29.87 | N | 7 | 0.00 |
| 6 | 01/27 | 19:00 | 42 | 35 | 77 | 29.82 | S | 7 | 0.00 |
| 7 | 01/27 | 18:00 | 43 | 36 | 77 | 29.77 | SW | 7 | 0.00 |
| 8 | 01/27 | 17:00 | 45 | 37 | 74 | 29.70 | SSW | 10 | 0.00 |
| 9 | 01/27 | 16:00 | 47 | 38 | 71 | 29.64 | N | 14 | 0.00 |
| 10 | 01/27 | 15:00 | 49 | 38 | 67 | 29.58 | SW | 8 | 0.00 |
| 11 | 01/27 | 14:00 | 52 | 42 | 69 | 29.54 | S | 12 | 0.00 |
| 12 | 01/27 | 13:00 | 55 | 52 | 91 | 29.46 | SSE | 6 | 0.00 |
| 13 | 01/27 | 12:00 | 58 | 55 | 93 | 29.45 | S | 9 | 0.00 |
| 14 | 01/27 | 11:00 | 56 | 55 | 100 | 29.45 | SSE | 3 | 0.00 |
| 15 | 01/27 | 10:00 | 54 | 54 | 100 | 29.45 | SSE | 2 | 0.00 |
| 16 | 01/27 | 09:00 | 52 | 51 | 100 | 29.46 | ESE | 3 | 0.05 |
| 17 | 01/27 | 08:00 | 52 | 51 | 100 | 29.48 | ENE | 1 | 0.12 |
| 18 | 01/27 | 07:00 | 55 | 54 | 100 | 29.48 | SE | 7 | 0.00 |
| 19 | 01/27 | 06:00 | 53 | 53 | 100 | 29.49 | SE | 11 | 0.00 |
| 20 | 01/27 | 05:00 | 51 | 50 | 100 | 29.51 | SSE | 5 | 0.02 |
| 21 | 01/27 | 04:00 | 50 | 50 | 100 | 29.56 | SE | 4 | 0.05 |
| 22 | 01/27 | 03:00 | 48 | 48 | 100 | 29.62 | SE | 4 | 0.00 |
| 23 | 01/27 | 02:00 | 43 | 42 | 100 | 29.66 | NNE | 1 | 0.00 |
| 24 | 01/27 | 01:00 | 42 | 41 | 100 | 29.71 | ENE | 1 | 0.00 |